sensor_id;sensor_type;location;lat;lon;timestamp;pressure;altitude;pressure_sealevel;temperature;humidity
64066;BME280;50318;54.760;9.408;2022-09-03T00:00:38;101571.09;;;19.59;57.21
64066;BME280;50318;54.760;9.408;2022-09-03T00:05:36;101568.06;;;19.62;57.31
64066;BME280;50318;54.760;9.408;2022-09-03T00:08:16;101564.03;;;19.63;57.08
64066;BME280;50318;54.760;9.408;2022-09-03T00:10:50;101562.31;;;19.66;56.94
64066;BME280;50318;54.760;9.408;2022-09-03T00:13:26;101561.31;;;19.69;57.12
64066;BME280;50318;54.760;9.408;2022-09-03T00:15:53;101559.56;;;19.72;57.03
64066;BME280;50318;54.760;9.408;2022-09-03T00:18:25;101566.16;;;19.74;57.19
64066;BME280;50318;54.760;9.408;2022-09-03T00:21:09;101561.63;;;19.77;57.12
64066;BME280;50318;54.760;9.408;2022-09-03T00:23:40;101565.94;;;19.78;57.21
64066;BME280;50318;54.760;9.408;2022-09-03T00:33:31;101561.44;;;19.86;57.35
64066;BME280;50318;54.760;9.408;2022-09-03T00:38:28;101553.38;;;19.88;57.53
64066;BME280;50318;54.760;9.408;2022-09-03T00:43:43;101557.69;;;19.89;57.72
64066;BME280;50318;54.760;9.408;2022-09-03T00:49:15;101542.53;;;19.90;57.49
64066;BME280;50318;54.760;9.408;2022-09-03T00:51:59;101540.50;;;19.90;57.51
64066;BME280;50318;54.760;9.408;2022-09-03T00:54:49;101539.72;;;19.90;57.41
64066;BME280;50318;54.760;9.408;2022-09-03T01:00:10;101534.16;;;19.90;57.06
64066;BME280;50318;54.760;9.408;2022-09-03T01:02:56;101536.19;;;19.89;57.33
64066;BME280;50318;54.760;9.408;2022-09-03T01:15:29;101543.28;;;19.90;57.55
64066;BME280;50318;54.760;9.408;2022-09-03T01:20:34;101539.47;;;19.88;57.65
64066;BME280;50318;54.760;9.408;2022-09-03T01:30:49;101530.56;;;19.84;57.69
64066;BME280;50318;54.760;9.408;2022-09-03T01:33:34;101530.28;;;19.82;57.76
64066;BME280;50318;54.760;9.408;2022-09-03T01:38:51;101534.06;;;19.79;57.95
64066;BME280;50318;54.760;9.408;2022-09-03T01:46:47;101532.50;;;19.72;58.35
64066;BME280;50318;54.760;9.408;2022-09-03T01:49:28;101540.09;;;19.72;58.49
64066;BME280;50318;54.760;9.408;2022-09-03T01:52:01;101531.47;;;19.70;58.63
64066;BME280;50318;54.760;9.408;2022-09-03T01:54:42;101538.78;;;19.67;58.58
64066;BME280;50318;54.760;9.408;2022-09-03T02:00:07;101537.00;;;19.64;58.84
64066;BME280;50318;54.760;9.408;2022-09-03T02:02:38;101543.03;;;19.62;58.88
64066;BME280;50318;54.760;9.408;2022-09-03T02:07:38;101542.25;;;19.62;58.93
64066;BME280;50318;54.760;9.408;2022-09-03T02:10:05;101541.50;;;19.61;59.08
64066;BME280;50318;54.760;9.408;2022-09-03T02:12:31;101535.94;;;19.61;58.70
64066;BME280;50318;54.760;9.408;2022-09-03T02:15:03;101535.94;;;19.61;59.00
64066;BME280;50318;54.760;9.408;2022-09-03T02:17:30;101533.16;;;19.61;58.81
64066;BME280;50318;54.760;9.408;2022-09-03T02:19:57;101527.59;;;19.61;59.13
64066;BME280;50318;54.760;9.408;2022-09-03T02:22:22;101525.06;;;19.63;59.25
64066;BME280;50318;54.760;9.408;2022-09-03T02:24:48;101522.59;;;19.66;59.25
64066;BME280;50318;54.760;9.408;2022-09-03T02:27:14;101522.84;;;19.68;59.38
64066;BME280;50318;54.760;9.408;2022-09-03T02:29:40;101520.84;;;19.68;59.22
64066;BME280;50318;54.760;9.408;2022-09-03T02:32:05;101523.88;;;19.70;59.10
64066;BME280;50318;54.760;9.408;2022-09-03T02:34:31;101523.13;;;19.70;59.20
64066;BME280;50318;54.760;9.408;2022-09-03T02:36:56;101519.56;;;19.69;59.20
64066;BME280;50318;54.760;9.408;2022-09-03T02:39:29;101514.78;;;19.70;59.34
64066;BME280;50318;54.760;9.408;2022-09-03T02:41:54;101515.53;;;19.70;59.05
64066;BME280;50318;54.760;9.408;2022-09-03T02:44:25;101510.72;;;19.71;58.98
64066;BME280;50318;54.760;9.408;2022-09-03T02:46:57;101507.19;;;19.70;59.33
64066;BME280;50318;54.760;9.408;2022-09-03T02:49:23;101509.97;;;19.70;59.19
64066;BME280;50318;54.760;9.408;2022-09-03T02:51:48;101511.22;;;19.69;58.96
64066;BME280;50318;54.760;9.408;2022-09-03T02:54:14;101507.69;;;19.69;59.17
64066;BME280;50318;54.760;9.408;2022-09-03T02:56:40;101504.91;;;19.69;59.14
64066;BME280;50318;54.760;9.408;2022-09-03T02:59:06;101501.34;;;19.68;58.94
64066;BME280;50318;54.760;9.408;2022-09-03T03:01:32;101506.16;;;19.68;59.18
64066;BME280;50318;54.760;9.408;2022-09-03T03:04:00;101500.59;;;19.68;59.28
64066;BME280;50318;54.760;9.408;2022-09-03T03:06:26;101510.19;;;19.67;59.34
64066;BME280;50318;54.760;9.408;2022-09-03T03:08:52;101507.16;;;19.65;59.13
64066;BME280;50318;54.760;9.408;2022-09-03T03:11:20;101506.84;;;19.62;58.94
64066;BME280;50318;54.760;9.408;2022-09-03T03:13:47;101508.09;;;19.61;59.14
64066;BME280;50318;54.760;9.408;2022-09-03T03:16:15;101512.41;;;19.62;59.26
64066;BME280;50318;54.760;9.408;2022-09-03T03:18:41;101512.91;;;19.61;59.51
64066;BME280;50318;54.760;9.408;2022-09-03T03:21:10;101507.84;;;19.59;59.50
64066;BME280;50318;54.760;9.408;2022-09-03T03:23:36;101516.94;;;19.60;59.64
64066;BME280;50318;54.760;9.408;2022-09-03T03:26:10;101509.09;;;19.58;59.71
64066;BME280;50318;54.760;9.408;2022-09-03T03:28:36;101507.56;;;19.57;59.47
64066;BME280;50318;54.760;9.408;2022-09-03T03:33:57;101518.69;;;19.57;59.50
64066;BME280;50318;54.760;9.408;2022-09-03T03:36:34;101514.66;;;19.58;59.54
64066;BME280;50318;54.760;9.408;2022-09-03T03:39:00;101518.69;;;19.57;59.07
64066;BME280;50318;54.760;9.408;2022-09-03T03:41:27;101516.69;;;19.58;59.30
64066;BME280;50318;54.760;9.408;2022-09-03T03:43:54;101522.25;;;19.58;59.21
64066;BME280;50318;54.760;9.408;2022-09-03T03:46:21;101518.69;;;19.57;58.99
64066;BME280;50318;54.760;9.408;2022-09-03T03:48:47;101523.00;;;19.58;59.40
64066;BME280;50318;54.760;9.408;2022-09-03T03:51:12;101521.00;;;19.59;59.05
64066;BME280;50318;54.760;9.408;2022-09-03T03:53:40;101517.72;;;19.60;58.90
64066;BME280;50318;54.760;9.408;2022-09-03T03:56:07;101518.47;;;19.61;59.08
64066;BME280;50318;54.760;9.408;2022-09-03T03:58:36;101516.47;;;19.61;59.19
64066;BME280;50318;54.760;9.408;2022-09-03T04:01:05;101512.72;;;19.65;59.03
64066;BME280;50318;54.760;9.408;2022-09-03T04:03:31;101521.31;;;19.67;59.16
64066;BME280;50318;54.760;9.408;2022-09-03T04:05:57;101519.81;;;19.66;59.20
64066;BME280;50318;54.760;9.408;2022-09-03T04:08:24;101521.59;;;19.69;59.33
64066;BME280;50318;54.760;9.408;2022-09-03T04:10:49;101517.56;;;19.70;59.07
64066;BME280;50318;54.760;9.408;2022-09-03T04:13:15;101527.44;;;19.71;58.78
64066;BME280;50318;54.760;9.408;2022-09-03T04:15:41;101528.97;;;19.72;58.92
64066;BME280;50318;54.760;9.408;2022-09-03T04:18:07;101527.69;;;19.73;59.17
64066;BME280;50318;54.760;9.408;2022-09-03T04:20:34;101532.28;;;19.76;58.89
64066;BME280;50318;54.760;9.408;2022-09-03T04:23:00;101529.50;;;19.76;58.95
64066;BME280;50318;54.760;9.408;2022-09-03T04:25:26;101531.78;;;19.77;58.72
64066;BME280;50318;54.760;9.408;2022-09-03T04:27:51;101531.28;;;19.79;58.83
64066;BME280;50318;54.760;9.408;2022-09-03T04:30:17;101530.03;;;19.80;58.74
64066;BME280;50318;54.760;9.408;2022-09-03T04:32:43;101526.75;;;19.81;58.96
64066;BME280;50318;54.760;9.408;2022-09-03T04:35:18;101531.06;;;19.82;58.68
64066;BME280;50318;54.760;9.408;2022-09-03T04:37:45;101530.56;;;19.84;58.86
64066;BME280;50318;54.760;9.408;2022-09-03T04:40:10;101532.06;;;19.85;58.59
64066;BME280;50318;54.760;9.408;2022-09-03T04:42:36;101531.59;;;19.86;58.63
64066;BME280;50318;54.760;9.408;2022-09-03T04:45:01;101540.69;;;19.87;58.29
64066;BME280;50318;54.760;9.408;2022-09-03T04:47:27;101539.47;;;19.88;58.15
64066;BME280;50318;54.760;9.408;2022-09-03T04:49:53;101541.00;;;19.89;58.27
64066;BME280;50318;54.760;9.408;2022-09-03T04:52:19;101532.91;;;19.91;58.12
64066;BME280;50318;54.760;9.408;2022-09-03T04:54:45;101541.53;;;19.93;58.12
64066;BME280;50318;54.760;9.408;2022-09-03T04:57:10;101544.56;;;19.95;58.48
64066;BME280;50318;54.760;9.408;2022-09-03T04:59:36;101546.38;;;19.98;58.35
64066;BME280;50318;54.760;9.408;2022-09-03T05:02:01;101549.41;;;20.00;58.69
64066;BME280;50318;54.760;9.408;2022-09-03T05:04:27;101549.69;;;20.02;58.63
64066;BME280;50318;54.760;9.408;2022-09-03T05:06:52;101549.69;;;20.02;58.48
64066;BME280;50318;54.760;9.408;2022-09-03T05:09:24;101545.63;;;20.03;58.27
64066;BME280;50318;54.760;9.408;2022-09-03T05:11:50;101545.13;;;20.05;58.15
64066;BME280;50318;54.760;9.408;2022-09-03T05:14:18;101543.13;;;20.05;58.08
64066;BME280;50318;54.760;9.408;2022-09-03T05:16:43;101546.16;;;20.07;58.09
64066;BME280;50318;54.760;9.408;2022-09-03T05:19:09;101554.03;;;20.09;57.68
64066;BME280;50318;54.760;9.408;2022-09-03T05:21:35;101548.72;;;20.11;58.04
64066;BME280;50318;54.760;9.408;2022-09-03T05:24:05;101553.06;;;20.12;57.79
64066;BME280;50318;54.760;9.408;2022-09-03T05:26:32;101554.09;;;20.14;58.00
64066;BME280;50318;54.760;9.408;2022-09-03T05:29:01;101554.84;;;20.15;57.95
64066;BME280;50318;54.760;9.408;2022-09-03T05:31:28;101557.41;;;20.18;58.36
64066;BME280;50318;54.760;9.408;2022-09-03T05:33:56;101552.09;;;20.20;58.05
64066;BME280;50318;54.760;9.408;2022-09-03T05:36:24;101550.34;;;20.23;58.10
64066;BME280;50318;54.760;9.408;2022-09-03T05:38:50;101555.41;;;20.24;58.08
64066;BME280;50318;54.760;9.408;2022-09-03T05:41:18;101550.59;;;20.25;58.33
64066;BME280;50318;54.760;9.408;2022-09-03T05:43:46;101551.63;;;20.28;57.96
64066;BME280;50318;54.760;9.408;2022-09-03T05:46:16;101553.91;;;20.29;58.06
64066;BME280;50318;54.760;9.408;2022-09-03T05:48:42;101553.69;;;20.33;58.32
64066;BME280;50318;54.760;9.408;2022-09-03T05:51:35;101551.19;;;20.35;58.07
64066;BME280;50318;54.760;9.408;2022-09-03T05:54:01;101555.75;;;20.38;58.14
64066;BME280;50318;54.760;9.408;2022-09-03T05:56:31;101551.72;;;20.39;57.48
64066;BME280;50318;54.760;9.408;2022-09-03T05:58:58;101552.25;;;20.43;57.63
64066;BME280;50318;54.760;9.408;2022-09-03T06:01:30;101552.78;;;20.47;57.60
64066;BME280;50318;54.760;9.408;2022-09-03T06:03:57;101556.09;;;20.51;57.59
64066;BME280;50318;54.760;9.408;2022-09-03T06:06:23;101556.34;;;20.53;57.29
64066;BME280;50318;54.760;9.408;2022-09-03T06:08:55;101551.03;;;20.55;56.80
64066;BME280;50318;54.760;9.408;2022-09-03T06:11:22;101548.81;;;20.59;57.05
64066;BME280;50318;54.760;9.408;2022-09-03T06:13:54;101556.44;;;20.64;57.05
64066;BME280;50318;54.760;9.408;2022-09-03T06:16:20;101555.44;;;20.67;56.43
64066;BME280;50318;54.760;9.408;2022-09-03T06:18:47;101561.53;;;20.71;56.73
64066;BME280;50318;54.760;9.408;2022-09-03T06:21:13;101560.00;;;20.76;56.68
64066;BME280;50318;54.760;9.408;2022-09-03T06:23:42;101553.44;;;20.79;56.91
64066;BME280;50318;54.760;9.408;2022-09-03T06:26:12;101556.78;;;20.83;57.11
64066;BME280;50318;54.760;9.408;2022-09-03T06:28:38;101562.09;;;20.87;57.12
64066;BME280;50318;54.760;9.408;2022-09-03T06:31:06;101553.25;;;20.88;56.39
64066;BME280;50318;54.760;9.408;2022-09-03T06:33:32;101554.25;;;20.91;56.47
64066;BME280;50318;54.760;9.408;2022-09-03T06:35:59;101565.16;;;20.94;56.15
64066;BME280;50318;54.760;9.408;2022-09-03T06:38:26;101561.38;;;20.97;56.13
64066;BME280;50318;54.760;9.408;2022-09-03T06:40:52;101555.53;;;21.01;55.72
64066;BME280;50318;54.760;9.408;2022-09-03T06:43:18;101561.63;;;21.05;55.31
64066;BME280;50318;54.760;9.408;2022-09-03T06:45:51;101560.66;;;21.08;54.83
64066;BME280;50318;54.760;9.408;2022-09-03T06:48:17;101558.38;;;21.12;54.44
64066;BME280;50318;54.760;9.408;2022-09-03T06:51:13;101567.53;;;21.18;54.30
64066;BME280;50318;54.760;9.408;2022-09-03T06:53:39;101557.63;;;21.23;53.97
64066;BME280;50318;54.760;9.408;2022-09-03T06:56:06;101558.69;;;21.25;53.31
64066;BME280;50318;54.760;9.408;2022-09-03T06:58:34;101553.13;;;21.31;53.74
64066;BME280;50318;54.760;9.408;2022-09-03T07:01:03;101553.16;;;21.36;53.37
64066;BME280;50318;54.760;9.408;2022-09-03T07:03:31;101556.94;;;21.39;52.28
64066;BME280;50318;54.760;9.408;2022-09-03T07:06:04;101560.00;;;21.41;52.40
64066;BME280;50318;54.760;9.408;2022-09-03T07:08:33;101557.47;;;21.43;52.13
64066;BME280;50318;54.760;9.408;2022-09-03T07:11:02;101555.69;;;21.45;52.25
64066;BME280;50318;54.760;9.408;2022-09-03T07:13:30;101551.38;;;21.50;52.44
64066;BME280;50318;54.760;9.408;2022-09-03T07:15:57;101552.66;;;21.55;52.32
64066;BME280;50318;54.760;9.408;2022-09-03T07:18:23;101544.03;;;21.58;52.61
64066;BME280;50318;54.760;9.408;2022-09-03T07:20:48;101545.06;;;21.61;52.04
64066;BME280;50318;54.760;9.408;2022-09-03T07:23:13;101552.16;;;21.62;51.71
64066;BME280;50318;54.760;9.408;2022-09-03T07:25:40;101554.19;;;21.61;51.66
64066;BME280;50318;54.760;9.408;2022-09-03T07:28:05;101545.56;;;21.59;51.27
64066;BME280;50318;54.760;9.408;2022-09-03T07:30:31;101545.06;;;21.61;51.30
64066;BME280;50318;54.760;9.408;2022-09-03T07:32:59;101552.91;;;21.62;51.66
64066;BME280;50318;54.760;9.408;2022-09-03T07:35:33;101548.84;;;21.63;51.28
64066;BME280;50318;54.760;9.408;2022-09-03T07:38:00;101553.69;;;21.63;50.54
64066;BME280;50318;54.760;9.408;2022-09-03T07:40:25;101555.19;;;21.64;50.89
64066;BME280;50318;54.760;9.408;2022-09-03T07:42:55;101558.75;;;21.64;50.69
64066;BME280;50318;54.760;9.408;2022-09-03T07:45:23;101553.16;;;21.70;50.93
64066;BME280;50318;54.760;9.408;2022-09-03T07:47:51;101551.13;;;21.76;50.59
64066;BME280;50318;54.760;9.408;2022-09-03T07:50:17;101551.16;;;21.82;50.44
64066;BME280;50318;54.760;9.408;2022-09-03T07:52:43;101546.31;;;21.88;49.56
64066;BME280;50318;54.760;9.408;2022-09-03T07:55:08;101546.06;;;21.91;49.13
64066;BME280;50318;54.760;9.408;2022-09-03T07:57:34;101555.69;;;21.96;48.95
64066;BME280;50318;54.760;9.408;2022-09-03T08:00:00;101559.28;;;22.02;48.70
64066;BME280;50318;54.760;9.408;2022-09-03T08:02:25;101547.84;;;22.11;48.45
64066;BME280;50318;54.760;9.408;2022-09-03T08:04:51;101555.44;;;22.22;48.47
64066;BME280;50318;54.760;9.408;2022-09-03T08:07:40;101555.91;;;22.37;48.57
64066;BME280;50318;54.760;9.408;2022-09-03T08:10:05;101553.34;;;22.50;48.33
64066;BME280;50318;54.760;9.408;2022-09-03T08:12:31;101556.34;;;22.63;48.35
64066;BME280;50318;54.760;9.408;2022-09-03T08:14:57;101548.16;;;22.77;47.72
64066;BME280;50318;54.760;9.408;2022-09-03T08:17:22;101556.00;;;22.89;47.16
64066;BME280;50318;54.760;9.408;2022-09-03T08:19:48;101554.41;;;23.05;46.82
64066;BME280;50318;54.760;9.408;2022-09-03T08:22:14;101553.81;;;23.18;46.02
64066;BME280;50318;54.760;9.408;2022-09-03T08:24:39;101557.84;;;23.28;45.24
64066;BME280;50318;54.760;9.408;2022-09-03T08:27:09;101550.88;;;23.40;45.14
64066;BME280;50318;54.760;9.408;2022-09-03T08:29:34;101554.38;;;23.52;45.07
64066;BME280;50318;54.760;9.408;2022-09-03T08:32:02;101562.94;;;23.65;44.95
64066;BME280;50318;54.760;9.408;2022-09-03T08:34:46;101562.59;;;23.80;43.63
64066;BME280;50318;54.760;9.408;2022-09-03T08:37:11;101560.47;;;23.92;43.40
64066;BME280;50318;54.760;9.408;2022-09-03T08:39:37;101558.84;;;24.02;42.93
64066;BME280;50318;54.760;9.408;2022-09-03T08:47:37;101557.56;;;24.27;42.92
64066;BME280;50318;54.760;9.408;2022-09-03T08:54:59;101558.41;;;24.46;41.39
64066;BME280;50318;54.760;9.408;2022-09-03T08:57:27;101557.34;;;24.49;40.79
64066;BME280;50318;54.760;9.408;2022-09-03T08:59:56;101553.78;;;24.49;40.14
64066;BME280;50318;54.760;9.408;2022-09-03T09:02:43;101553.25;;;24.51;40.06
64066;BME280;50318;54.760;9.408;2022-09-03T09:05:11;101558.34;;;24.52;39.79
64066;BME280;50318;54.760;9.408;2022-09-03T09:13:19;101545.53;;;24.57;38.90
64066;BME280;50318;54.760;9.408;2022-09-03T09:23:05;101556.69;;;24.81;37.41
64066;BME280;50318;54.760;9.408;2022-09-03T09:25:31;101554.66;;;24.82;36.86
64066;BME280;50318;54.760;9.408;2022-09-03T09:30:38;101550.88;;;24.79;36.13
64066;BME280;50318;54.760;9.408;2022-09-03T09:33:05;101552.38;;;24.80;35.62
64066;BME280;50318;54.760;9.408;2022-09-03T09:35:31;101546.19;;;24.87;36.03
64066;BME280;50318;54.760;9.408;2022-09-03T09:37:57;101566.50;;;24.93;36.21
64066;BME280;50318;54.760;9.408;2022-09-03T09:40:29;101554.84;;;24.89;35.96
64066;BME280;50318;54.760;9.408;2022-09-03T09:45:31;101550.81;;;24.85;36.63
64066;BME280;50318;54.760;9.408;2022-09-03T09:47:58;101553.78;;;24.92;35.90
64066;BME280;50318;54.760;9.408;2022-09-03T09:50:24;101544.22;;;25.01;36.17
64066;BME280;50318;54.760;9.408;2022-09-03T09:53:18;101540.00;;;25.13;35.86
64066;BME280;50318;54.760;9.408;2022-09-03T09:58:14;101549.25;;;25.08;34.77
64066;BME280;50318;54.760;9.408;2022-09-03T10:00:53;101552.56;;;25.06;34.94
64066;BME280;50318;54.760;9.408;2022-09-03T10:03:19;101538.63;;;25.01;34.20
64066;BME280;50318;54.760;9.408;2022-09-03T10:05:53;101530.78;;;24.94;34.11
64066;BME280;50318;54.760;9.408;2022-09-03T10:08:21;101543.28;;;24.74;33.81
64066;BME280;50318;54.760;9.408;2022-09-03T10:10:47;101536.13;;;24.54;33.42
64066;BME280;50318;54.760;9.408;2022-09-03T10:13:21;101538.09;;;24.40;33.45
64066;BME280;50318;54.760;9.408;2022-09-03T10:21:07;101541.00;;;24.29;34.08
64066;BME280;50318;54.760;9.408;2022-09-03T10:24:24;101534.38;;;24.27;34.70
64066;BME280;50318;54.760;9.408;2022-09-03T10:26:24;101539.72;;;24.30;34.89
64066;BME280;50318;54.760;9.408;2022-09-03T10:28:55;101536.09;;;24.35;34.11
64066;BME280;50318;54.760;9.408;2022-09-03T10:34:05;101535.63;;;24.31;33.35
64066;BME280;50318;54.760;9.408;2022-09-03T10:36:36;101531.88;;;24.23;33.81
64066;BME280;50318;54.760;9.408;2022-09-03T10:41:37;101523.22;;;24.21;34.68
64066;BME280;50318;54.760;9.408;2022-09-03T10:50:13;101517.31;;;24.49;34.95
64066;BME280;50318;54.760;9.408;2022-09-03T10:57:39;101530.69;;;24.80;35.19
64066;BME280;50318;54.760;9.408;2022-09-03T11:00:10;101523.25;;;24.83;34.91
64066;BME280;50318;54.760;9.408;2022-09-03T11:05:36;101526.53;;;24.87;34.69
64066;BME280;50318;54.760;9.408;2022-09-03T11:10:32;101516.53;;;24.92;34.86
64066;BME280;50318;54.760;9.408;2022-09-03T11:13:02;101515.31;;;24.87;35.17
64066;BME280;50318;54.760;9.408;2022-09-03T11:15:32;101501.44;;;24.76;35.29
64066;BME280;50318;54.760;9.408;2022-09-03T11:20:29;101497.50;;;24.66;35.16
64066;BME280;50318;54.760;9.408;2022-09-03T11:22:57;101498.78;;;24.65;35.22
64066;BME280;50318;54.760;9.408;2022-09-03T11:25:26;101491.44;;;24.62;34.93
64066;BME280;50318;54.760;9.408;2022-09-03T11:33:09;101498.84;;;24.78;35.39
64066;BME280;50318;54.760;9.408;2022-09-03T11:38:05;101498.09;;;24.77;34.86
64066;BME280;50318;54.760;9.408;2022-09-03T11:40:39;101500.13;;;24.77;35.07
64066;BME280;50318;54.760;9.408;2022-09-03T11:45:48;101490.50;;;24.72;35.13
64066;BME280;50318;54.760;9.408;2022-09-03T11:48:19;101495.91;;;24.70;34.95
64066;BME280;50318;54.760;9.408;2022-09-03T11:50:53;101492.56;;;24.72;35.87
64066;BME280;50318;54.760;9.408;2022-09-03T11:58:21;101486.94;;;24.72;35.35
64066;BME280;50318;54.760;9.408;2022-09-03T12:00:48;101492.63;;;24.66;35.11
64066;BME280;50318;54.760;9.408;2022-09-03T12:03:20;101496.03;;;24.59;35.42
64066;BME280;50318;54.760;9.408;2022-09-03T12:06:01;101493.75;;;24.58;35.03
64066;BME280;50318;54.760;9.408;2022-09-03T12:11:36;101481.50;;;24.61;35.41
64066;BME280;50318;54.760;9.408;2022-09-03T12:16:49;101485.44;;;24.71;35.75
64066;BME280;50318;54.760;9.408;2022-09-03T12:19:50;101491.56;;;24.69;35.83
64066;BME280;50318;54.760;9.408;2022-09-03T12:22:17;101479.69;;;24.63;35.37
64066;BME280;50318;54.760;9.408;2022-09-03T12:24:44;101481.78;;;24.57;35.41
64066;BME280;50318;54.760;9.408;2022-09-03T12:27:11;101481.25;;;24.59;35.81
64066;BME280;50318;54.760;9.408;2022-09-03T12:30:00;101471.03;;;24.61;35.86
64066;BME280;50318;54.760;9.408;2022-09-03T12:32:27;101476.56;;;24.67;36.06
64066;BME280;50318;54.760;9.408;2022-09-03T12:34:54;101473.84;;;24.61;36.14
64066;BME280;50318;54.760;9.408;2022-09-03T12:37:21;101466.25;;;24.56;37.13
64066;BME280;50318;54.760;9.408;2022-09-03T12:39:54;101465.47;;;24.56;37.37
64066;BME280;50318;54.760;9.408;2022-09-03T12:42:28;101473.97;;;24.50;37.62
64066;BME280;50318;54.760;9.408;2022-09-03T12:44:54;101463.13;;;24.41;38.10
64066;BME280;50318;54.760;9.408;2022-09-03T12:47:23;101460.16;;;24.33;37.85
64066;BME280;50318;54.760;9.408;2022-09-03T12:49:49;101475.47;;;24.32;38.97
64066;BME280;50318;54.760;9.408;2022-09-03T12:54:58;101455.19;;;24.45;39.41
64066;BME280;50318;54.760;9.408;2022-09-03T12:57:30;101458.50;;;24.43;38.41
64066;BME280;50318;54.760;9.408;2022-09-03T12:59:59;101459.81;;;24.42;37.83
64066;BME280;50318;54.760;9.408;2022-09-03T13:03:14;101463.13;;;24.41;38.17
64066;BME280;50318;54.760;9.408;2022-09-03T13:05:16;101459.63;;;24.35;38.57
64066;BME280;50318;54.760;9.408;2022-09-03T13:07:44;101462.50;;;24.29;38.45
64066;BME280;50318;54.760;9.408;2022-09-03T13:10:22;101456.63;;;24.27;38.71
64066;BME280;50318;54.760;9.408;2022-09-03T13:12:49;101457.69;;;24.24;39.40
64066;BME280;50318;54.760;9.408;2022-09-03T13:15:22;101455.38;;;24.28;40.23
64066;BME280;50318;54.760;9.408;2022-09-03T13:18:17;101456.91;;;24.29;39.98
64066;BME280;50318;54.760;9.408;2022-09-03T13:23:47;101453.47;;;24.36;40.43
64066;BME280;50318;54.760;9.408;2022-09-03T13:31:51;101456.53;;;24.38;40.16
64066;BME280;50318;54.760;9.408;2022-09-03T13:37:53;101459.22;;;23.76;46.96
64066;BME280;50318;54.760;9.408;2022-09-03T13:39:55;101449.59;;;23.06;48.48
64066;BME280;50318;54.760;9.408;2022-09-03T13:48:16;101451.38;;;21.82;51.17
64066;BME280;50318;54.760;9.408;2022-09-03T13:51:16;101448.09;;;21.56;50.06
64066;BME280;50318;54.760;9.408;2022-09-03T13:59:24;101449.38;;;21.60;50.20
64066;BME280;50318;54.760;9.408;2022-09-03T14:04:24;101448.34;;;21.80;49.82
64066;BME280;50318;54.760;9.408;2022-09-03T14:06:59;101451.34;;;21.93;50.31
64066;BME280;50318;54.760;9.408;2022-09-03T14:12:24;101429.69;;;22.22;48.84
64066;BME280;50318;54.760;9.408;2022-09-03T14:20:43;101435.16;;;22.55;47.80
64066;BME280;50318;54.760;9.408;2022-09-03T14:25:56;101436.34;;;22.65;46.17
64066;BME280;50318;54.760;9.408;2022-09-03T14:30:51;101442.13;;;22.79;45.19
64066;BME280;50318;54.760;9.408;2022-09-03T14:36:02;101430.41;;;22.86;45.10
64066;BME280;50318;54.760;9.408;2022-09-03T15:07:35;101433.69;;;23.25;42.61
64066;BME280;50318;54.760;9.408;2022-09-03T15:12:36;101433.94;;;23.27;42.53
64066;BME280;50318;54.760;9.408;2022-09-03T15:20:57;101439.72;;;23.35;42.32
64066;BME280;50318;54.760;9.408;2022-09-03T15:36:20;101449.06;;;23.43;41.96
64066;BME280;50318;54.760;9.408;2022-09-03T15:44:02;101447.31;;;23.40;41.64
64066;BME280;50318;54.760;9.408;2022-09-03T15:47:03;101444.78;;;23.37;41.39
64066;BME280;50318;54.760;9.408;2022-09-03T15:49:34;101447.59;;;23.37;41.64
64066;BME280;50318;54.760;9.408;2022-09-03T15:54:55;101450.09;;;23.40;41.84
64066;BME280;50318;54.760;9.408;2022-09-03T15:57:27;101450.38;;;23.42;41.72
64066;BME280;50318;54.760;9.408;2022-09-03T16:05:02;101437.88;;;23.43;41.48
64066;BME280;50318;54.760;9.408;2022-09-03T16:07:52;101442.72;;;23.43;41.39
64066;BME280;50318;54.760;9.408;2022-09-03T16:10:18;101453.16;;;23.42;41.66
64066;BME280;50318;54.760;9.408;2022-09-03T16:15:32;101448.09;;;23.35;41.74
64066;BME280;50318;54.760;9.408;2022-09-03T16:18:11;101441.53;;;23.33;41.89
64066;BME280;50318;54.760;9.408;2022-09-03T16:20:45;101450.97;;;23.30;41.87
64066;BME280;50318;54.760;9.408;2022-09-03T16:23:17;101446.41;;;23.26;41.42
64066;BME280;50318;54.760;9.408;2022-09-03T16:25:56;101443.13;;;23.22;41.36
64066;BME280;50318;54.760;9.408;2022-09-03T16:28:27;101445.44;;;23.18;41.38
64066;BME280;50318;54.760;9.408;2022-09-03T16:38:42;101443.72;;;23.10;42.05
64066;BME280;50318;54.760;9.408;2022-09-03T16:43:43;101445.06;;;23.03;42.22
64066;BME280;50318;54.760;9.408;2022-09-03T16:48:42;101452.50;;;22.95;42.50
64066;BME280;50318;54.760;9.408;2022-09-03T17:04:23;101455.13;;;22.76;43.80
64066;BME280;50318;54.760;9.408;2022-09-03T17:17:36;101468.97;;;22.52;44.45
64066;BME280;50318;54.760;9.408;2022-09-03T17:19:48;101468.72;;;22.50;44.78
64066;BME280;50318;54.760;9.408;2022-09-03T17:24:53;101470.25;;;22.45;45.26
64066;BME280;50318;54.760;9.408;2022-09-03T17:35:16;101472.38;;;22.28;45.68
64066;BME280;50318;54.760;9.408;2022-09-03T17:53:10;101484.59;;;21.97;47.24
64066;BME280;50318;54.760;9.408;2022-09-03T17:55:49;101491.72;;;21.92;47.45
64066;BME280;50318;54.760;9.408;2022-09-03T17:58:30;101500.88;;;21.87;47.64
64066;BME280;50318;54.760;9.408;2022-09-03T18:03:38;101513.06;;;21.79;48.39
64066;BME280;50318;54.760;9.408;2022-09-03T18:06:09;101507.47;;;21.73;48.78
64066;BME280;50318;54.760;9.408;2022-09-03T18:08:56;101504.19;;;21.69;48.70
64066;BME280;50318;54.760;9.408;2022-09-03T18:11:36;101517.38;;;21.63;49.12
64066;BME280;50318;54.760;9.408;2022-09-03T18:17:00;101519.69;;;21.53;49.57
64066;BME280;50318;54.760;9.408;2022-09-03T18:19:48;101527.00;;;21.51;49.95
64066;BME280;50318;54.760;9.408;2022-09-03T18:25:31;101534.13;;;21.40;50.54